sensor_id;sensor_type;location;lat;lon;timestamp;temperature;humidity
70762;DHT22;58360;0.000;0.000;2022-10-16T00:01:41;14.90;80.90
70762;DHT22;58360;0.000;0.000;2022-10-16T00:04:07;14.80;81.10
70762;DHT22;58360;0.000;0.000;2022-10-16T00:06:33;14.80;81.30
70762;DHT22;58360;0.000;0.000;2022-10-16T00:08:59;14.80;81.10
70762;DHT22;58360;0.000;0.000;2022-10-16T00:11:27;14.80;80.80
70762;DHT22;58360;0.000;0.000;2022-10-16T00:13:59;14.90;80.40
70762;DHT22;58360;0.000;0.000;2022-10-16T00:16:25;14.90;80.70
70762;DHT22;58360;0.000;0.000;2022-10-16T00:18:51;14.90;80.60
70762;DHT22;58360;0.000;0.000;2022-10-16T00:21:20;14.80;81.20
70762;DHT22;58360;0.000;0.000;2022-10-16T00:23:46;14.70;81.10
70762;DHT22;58360;0.000;0.000;2022-10-16T00:26:15;14.70;81.40
70762;DHT22;58360;0.000;0.000;2022-10-16T00:28:41;14.70;81.90
70762;DHT22;58360;0.000;0.000;2022-10-16T00:31:09;14.70;81.50
70762;DHT22;58360;0.000;0.000;2022-10-16T00:33:36;14.60;82.00
70762;DHT22;58360;0.000;0.000;2022-10-16T00:36:04;14.60;82.20
70762;DHT22;58360;0.000;0.000;2022-10-16T00:38:30;14.50;82.30
70762;DHT22;58360;0.000;0.000;2022-10-16T00:40:56;14.50;82.20
70762;DHT22;58360;0.000;0.000;2022-10-16T00:43:41;14.50;82.30
70762;DHT22;58360;0.000;0.000;2022-10-16T00:48:42;14.60;82.10
70762;DHT22;58360;0.000;0.000;2022-10-16T00:51:09;14.50;82.10
70762;DHT22;58360;0.000;0.000;2022-10-16T00:53:35;14.50;82.10
70762;DHT22;58360;0.000;0.000;2022-10-16T00:56:01;14.50;82.30
70762;DHT22;58360;0.000;0.000;2022-10-16T00:58:27;14.40;82.60
70762;DHT22;58360;0.000;0.000;2022-10-16T01:00:53;14.40;82.70
70762;DHT22;58360;0.000;0.000;2022-10-16T01:08:54;14.40;82.10
70762;DHT22;58360;0.000;0.000;2022-10-16T01:11:32;14.40;82.40
70762;DHT22;58360;0.000;0.000;2022-10-16T01:14:06;14.30;83.00
70762;DHT22;58360;0.000;0.000;2022-10-16T01:16:43;14.30;83.20
70762;DHT22;58360;0.000;0.000;2022-10-16T01:19:36;14.30;82.70
70762;DHT22;58360;0.000;0.000;2022-10-16T01:22:07;14.40;82.70
70762;DHT22;58360;0.000;0.000;2022-10-16T01:29:59;14.50;81.40
70762;DHT22;58360;0.000;0.000;2022-10-16T01:35:18;14.30;82.60
70762;DHT22;58360;0.000;0.000;2022-10-16T01:38:05;14.30;82.90
70762;DHT22;58360;0.000;0.000;2022-10-16T01:40:34;14.20;83.20
70762;DHT22;58360;0.000;0.000;2022-10-16T01:43:17;14.20;83.40
70762;DHT22;58360;0.000;0.000;2022-10-16T01:45:45;14.20;83.40
70762;DHT22;58360;0.000;0.000;2022-10-16T01:48:14;14.10;83.30
70762;DHT22;58360;0.000;0.000;2022-10-16T01:50:44;14.20;83.10
70762;DHT22;58360;0.000;0.000;2022-10-16T01:53:12;14.20;83.10
70762;DHT22;58360;0.000;0.000;2022-10-16T01:55:43;14.20;83.40
70762;DHT22;58360;0.000;0.000;2022-10-16T01:58:11;14.20;83.50
70762;DHT22;58360;0.000;0.000;2022-10-16T02:00:38;14.20;83.00
70762;DHT22;58360;0.000;0.000;2022-10-16T02:03:05;14.20;83.30
70762;DHT22;58360;0.000;0.000;2022-10-16T02:05:40;14.30;83.20
70762;DHT22;58360;0.000;0.000;2022-10-16T02:08:08;14.20;83.20
70762;DHT22;58360;0.000;0.000;2022-10-16T02:10:35;14.20;83.30
70762;DHT22;58360;0.000;0.000;2022-10-16T02:13:06;14.30;83.20
70762;DHT22;58360;0.000;0.000;2022-10-16T02:15:34;14.20;83.30
70762;DHT22;58360;0.000;0.000;2022-10-16T02:18:01;14.20;83.40
70762;DHT22;58360;0.000;0.000;2022-10-16T02:20:28;14.20;83.50
70762;DHT22;58360;0.000;0.000;2022-10-16T02:22:58;14.20;83.80
70762;DHT22;58360;0.000;0.000;2022-10-16T02:25:35;14.20;83.80
70762;DHT22;58360;0.000;0.000;2022-10-16T02:30:58;14.20;83.90
70762;DHT22;58360;0.000;0.000;2022-10-16T02:33:25;14.20;84.00
70762;DHT22;58360;0.000;0.000;2022-10-16T02:35:53;14.10;84.30
70762;DHT22;58360;0.000;0.000;2022-10-16T02:38:20;14.10;84.50
70762;DHT22;58360;0.000;0.000;2022-10-16T02:40:47;14.10;84.00
70762;DHT22;58360;0.000;0.000;2022-10-16T02:43:13;14.20;84.00
70762;DHT22;58360;0.000;0.000;2022-10-16T02:45:39;14.10;84.20
70762;DHT22;58360;0.000;0.000;2022-10-16T02:48:05;14.20;84.20
70762;DHT22;58360;0.000;0.000;2022-10-16T02:50:30;14.20;84.20
70762;DHT22;58360;0.000;0.000;2022-10-16T02:52:56;14.20;84.20
70762;DHT22;58360;0.000;0.000;2022-10-16T02:55:22;14.30;83.90
70762;DHT22;58360;0.000;0.000;2022-10-16T02:57:47;14.30;84.10
70762;DHT22;58360;0.000;0.000;2022-10-16T03:00:15;14.30;84.10
70762;DHT22;58360;0.000;0.000;2022-10-16T03:02:41;14.30;83.60
70762;DHT22;58360;0.000;0.000;2022-10-16T03:05:08;14.30;83.90
70762;DHT22;58360;0.000;0.000;2022-10-16T03:07:34;14.40;83.60
70762;DHT22;58360;0.000;0.000;2022-10-16T03:09:59;14.40;83.60
70762;DHT22;58360;0.000;0.000;2022-10-16T03:12:27;14.30;84.20
70762;DHT22;58360;0.000;0.000;2022-10-16T03:14:53;14.40;83.90
70762;DHT22;58360;0.000;0.000;2022-10-16T03:17:18;14.40;83.60
70762;DHT22;58360;0.000;0.000;2022-10-16T03:19:44;14.30;84.00
70762;DHT22;58360;0.000;0.000;2022-10-16T03:22:10;14.40;84.00
70762;DHT22;58360;0.000;0.000;2022-10-16T03:24:36;14.30;84.10
70762;DHT22;58360;0.000;0.000;2022-10-16T03:27:01;14.40;83.90
70762;DHT22;58360;0.000;0.000;2022-10-16T03:29:27;14.50;83.80
70762;DHT22;58360;0.000;0.000;2022-10-16T03:31:55;14.40;83.90
70762;DHT22;58360;0.000;0.000;2022-10-16T03:34:21;14.40;84.00
70762;DHT22;58360;0.000;0.000;2022-10-16T03:36:47;14.40;84.10
70762;DHT22;58360;0.000;0.000;2022-10-16T03:39:12;14.30;84.50
70762;DHT22;58360;0.000;0.000;2022-10-16T03:41:38;14.30;84.50
70762;DHT22;58360;0.000;0.000;2022-10-16T03:44:04;14.40;84.10
70762;DHT22;58360;0.000;0.000;2022-10-16T03:46:29;14.40;84.30
70762;DHT22;58360;0.000;0.000;2022-10-16T03:48:55;14.40;84.60
70762;DHT22;58360;0.000;0.000;2022-10-16T03:51:21;14.40;84.40
70762;DHT22;58360;0.000;0.000;2022-10-16T03:53:46;14.40;84.30
70762;DHT22;58360;0.000;0.000;2022-10-16T03:56:13;14.50;83.90
70762;DHT22;58360;0.000;0.000;2022-10-16T03:58:38;14.50;83.80
70762;DHT22;58360;0.000;0.000;2022-10-16T04:01:04;14.50;83.60
70762;DHT22;58360;0.000;0.000;2022-10-16T04:03:30;14.60;84.10
70762;DHT22;58360;0.000;0.000;2022-10-16T04:05:56;14.60;83.30
70762;DHT22;58360;0.000;0.000;2022-10-16T04:08:22;14.50;83.80
70762;DHT22;58360;0.000;0.000;2022-10-16T04:10:48;14.50;84.00
70762;DHT22;58360;0.000;0.000;2022-10-16T04:13:13;14.50;84.70
70762;DHT22;58360;0.000;0.000;2022-10-16T04:15:39;14.50;83.90
70762;DHT22;58360;0.000;0.000;2022-10-16T04:18:05;14.40;84.60
70762;DHT22;58360;0.000;0.000;2022-10-16T04:20:31;14.30;85.00
70762;DHT22;58360;0.000;0.000;2022-10-16T04:22:56;14.30;85.20
70762;DHT22;58360;0.000;0.000;2022-10-16T04:25:22;14.20;85.30
70762;DHT22;58360;0.000;0.000;2022-10-16T04:27:48;14.20;85.40
70762;DHT22;58360;0.000;0.000;2022-10-16T04:30:13;14.30;84.90
70762;DHT22;58360;0.000;0.000;2022-10-16T04:32:40;14.30;85.10
70762;DHT22;58360;0.000;0.000;2022-10-16T04:35:05;14.30;85.10
70762;DHT22;58360;0.000;0.000;2022-10-16T04:37:31;14.30;85.20
70762;DHT22;58360;0.000;0.000;2022-10-16T04:39:57;14.20;85.10
70762;DHT22;58360;0.000;0.000;2022-10-16T04:42:23;14.30;85.40
70762;DHT22;58360;0.000;0.000;2022-10-16T04:44:48;14.20;85.20
70762;DHT22;58360;0.000;0.000;2022-10-16T04:47:14;14.20;85.20
70762;DHT22;58360;0.000;0.000;2022-10-16T04:49:40;14.20;85.50
70762;DHT22;58360;0.000;0.000;2022-10-16T04:52:05;14.10;85.80
70762;DHT22;58360;0.000;0.000;2022-10-16T04:54:31;14.20;85.60
70762;DHT22;58360;0.000;0.000;2022-10-16T04:56:57;14.10;85.40
70762;DHT22;58360;0.000;0.000;2022-10-16T04:59:23;14.10;85.80
70762;DHT22;58360;0.000;0.000;2022-10-16T05:01:49;14.10;86.10
70762;DHT22;58360;0.000;0.000;2022-10-16T05:04:15;14.10;86.10
70762;DHT22;58360;0.000;0.000;2022-10-16T05:06:41;14.10;85.80
70762;DHT22;58360;0.000;0.000;2022-10-16T05:09:08;14.10;86.20
70762;DHT22;58360;0.000;0.000;2022-10-16T05:11:34;14.10;85.80
70762;DHT22;58360;0.000;0.000;2022-10-16T05:13:59;14.10;86.20
70762;DHT22;58360;0.000;0.000;2022-10-16T05:16:25;14.00;86.40
70762;DHT22;58360;0.000;0.000;2022-10-16T05:18:52;14.00;86.30
70762;DHT22;58360;0.000;0.000;2022-10-16T05:21:17;14.00;86.30
70762;DHT22;58360;0.000;0.000;2022-10-16T05:23:43;13.90;86.60
70762;DHT22;58360;0.000;0.000;2022-10-16T05:26:09;13.90;86.90
70762;DHT22;58360;0.000;0.000;2022-10-16T05:28:35;13.90;86.90
70762;DHT22;58360;0.000;0.000;2022-10-16T05:31:07;13.90;86.80
70762;DHT22;58360;0.000;0.000;2022-10-16T05:33:33;13.90;86.70
70762;DHT22;58360;0.000;0.000;2022-10-16T05:36:07;13.90;86.70
70762;DHT22;58360;0.000;0.000;2022-10-16T05:38:34;13.90;86.80
70762;DHT22;58360;0.000;0.000;2022-10-16T05:41:01;13.90;86.70
70762;DHT22;58360;0.000;0.000;2022-10-16T05:43:28;13.80;87.10
70762;DHT22;58360;0.000;0.000;2022-10-16T05:46:04;13.80;87.20
70762;DHT22;58360;0.000;0.000;2022-10-16T05:48:31;13.80;87.00
70762;DHT22;58360;0.000;0.000;2022-10-16T05:51:07;13.80;87.40
70762;DHT22;58360;0.000;0.000;2022-10-16T05:53:36;13.70;87.40
70762;DHT22;58360;0.000;0.000;2022-10-16T05:56:03;13.80;87.20
70762;DHT22;58360;0.000;0.000;2022-10-16T05:58:33;13.70;87.50
70762;DHT22;58360;0.000;0.000;2022-10-16T06:01:03;13.60;87.90
70762;DHT22;58360;0.000;0.000;2022-10-16T06:03:29;13.60;87.90
70762;DHT22;58360;0.000;0.000;2022-10-16T06:05:54;13.60;88.00
70762;DHT22;58360;0.000;0.000;2022-10-16T06:08:21;13.70;87.80
70762;DHT22;58360;0.000;0.000;2022-10-16T06:10:48;13.80;87.40
70762;DHT22;58360;0.000;0.000;2022-10-16T06:13:15;13.70;87.80
70762;DHT22;58360;0.000;0.000;2022-10-16T06:15:42;13.60;88.00
70762;DHT22;58360;0.000;0.000;2022-10-16T06:18:09;13.60;88.00
70762;DHT22;58360;0.000;0.000;2022-10-16T06:20:35;13.70;87.80
70762;DHT22;58360;0.000;0.000;2022-10-16T06:23:01;13.80;87.40
70762;DHT22;58360;0.000;0.000;2022-10-16T06:25:27;13.80;87.40
70762;DHT22;58360;0.000;0.000;2022-10-16T06:27:52;13.90;87.20
70762;DHT22;58360;0.000;0.000;2022-10-16T06:30:18;13.90;87.70
70762;DHT22;58360;0.000;0.000;2022-10-16T06:32:44;14.00;87.50
70762;DHT22;58360;0.000;0.000;2022-10-16T06:35:09;14.00;87.00
70762;DHT22;58360;0.000;0.000;2022-10-16T06:37:35;14.10;86.80
70762;DHT22;58360;0.000;0.000;2022-10-16T06:40:00;14.10;86.80
70762;DHT22;58360;0.000;0.000;2022-10-16T06:42:29;14.20;86.30
70762;DHT22;58360;0.000;0.000;2022-10-16T06:44:55;14.30;86.50
70762;DHT22;58360;0.000;0.000;2022-10-16T06:47:21;14.30;86.40
70762;DHT22;58360;0.000;0.000;2022-10-16T06:49:47;14.30;86.20
70762;DHT22;58360;0.000;0.000;2022-10-16T06:52:12;14.30;86.50
70762;DHT22;58360;0.000;0.000;2022-10-16T06:54:38;14.30;86.30
70762;DHT22;58360;0.000;0.000;2022-10-16T06:57:05;14.50;85.70
70762;DHT22;58360;0.000;0.000;2022-10-16T06:59:31;14.60;84.90
70762;DHT22;58360;0.000;0.000;2022-10-16T07:01:56;14.70;84.90
70762;DHT22;58360;0.000;0.000;2022-10-16T07:04:22;14.50;85.50
70762;DHT22;58360;0.000;0.000;2022-10-16T07:06:48;14.60;85.30
70762;DHT22;58360;0.000;0.000;2022-10-16T07:09:13;14.60;85.10
70762;DHT22;58360;0.000;0.000;2022-10-16T07:11:39;14.60;85.40
70762;DHT22;58360;0.000;0.000;2022-10-16T07:14:16;14.60;85.30
70762;DHT22;58360;0.000;0.000;2022-10-16T07:16:42;14.60;85.10
70762;DHT22;58360;0.000;0.000;2022-10-16T07:19:08;14.60;85.10
70762;DHT22;58360;0.000;0.000;2022-10-16T07:21:34;14.60;85.00
70762;DHT22;58360;0.000;0.000;2022-10-16T07:24:05;14.70;84.90
70762;DHT22;58360;0.000;0.000;2022-10-16T07:26:33;14.70;84.90
70762;DHT22;58360;0.000;0.000;2022-10-16T07:28:59;14.70;85.20
70762;DHT22;58360;0.000;0.000;2022-10-16T07:31:26;14.70;85.00
70762;DHT22;58360;0.000;0.000;2022-10-16T07:33:53;14.80;84.90
70762;DHT22;58360;0.000;0.000;2022-10-16T07:36:20;14.80;85.30
70762;DHT22;58360;0.000;0.000;2022-10-16T07:38:45;14.70;85.30
70762;DHT22;58360;0.000;0.000;2022-10-16T07:41:14;14.70;85.50
70762;DHT22;58360;0.000;0.000;2022-10-16T07:43:45;14.70;85.50
70762;DHT22;58360;0.000;0.000;2022-10-16T07:46:10;14.80;85.00
70762;DHT22;58360;0.000;0.000;2022-10-16T07:48:36;14.80;85.00
70762;DHT22;58360;0.000;0.000;2022-10-16T07:51:05;14.90;84.90
70762;DHT22;58360;0.000;0.000;2022-10-16T07:53:31;14.90;84.90
70762;DHT22;58360;0.000;0.000;2022-10-16T07:56:02;15.10;84.40
70762;DHT22;58360;0.000;0.000;2022-10-16T07:58:28;15.00;84.50
70762;DHT22;58360;0.000;0.000;2022-10-16T08:00:55;15.10;83.90
70762;DHT22;58360;0.000;0.000;2022-10-16T08:03:21;15.10;84.00
70762;DHT22;58360;0.000;0.000;2022-10-16T08:05:47;15.20;84.00
70762;DHT22;58360;0.000;0.000;2022-10-16T08:08:14;15.30;82.90
70762;DHT22;58360;0.000;0.000;2022-10-16T08:10:40;15.20;82.80
70762;DHT22;58360;0.000;0.000;2022-10-16T08:13:06;15.20;83.30
70762;DHT22;58360;0.000;0.000;2022-10-16T08:15:31;15.20;83.40
70762;DHT22;58360;0.000;0.000;2022-10-16T08:17:59;15.20;83.10
70762;DHT22;58360;0.000;0.000;2022-10-16T08:20:26;15.30;82.50
70762;DHT22;58360;0.000;0.000;2022-10-16T08:22:53;15.30;82.50
70762;DHT22;58360;0.000;0.000;2022-10-16T08:25:20;15.40;82.30
70762;DHT22;58360;0.000;0.000;2022-10-16T08:27:46;15.30;82.90
70762;DHT22;58360;0.000;0.000;2022-10-16T08:30:12;15.40;82.40
70762;DHT22;58360;0.000;0.000;2022-10-16T08:32:38;15.50;82.40
70762;DHT22;58360;0.000;0.000;2022-10-16T08:35:04;15.50;82.10
70762;DHT22;58360;0.000;0.000;2022-10-16T08:37:31;15.50;82.30
70762;DHT22;58360;0.000;0.000;2022-10-16T08:39:57;15.60;82.10
70762;DHT22;58360;0.000;0.000;2022-10-16T08:50:43;15.80;81.60
70762;DHT22;58360;0.000;0.000;2022-10-16T08:53:31;15.80;80.30
70762;DHT22;58360;0.000;0.000;2022-10-16T08:55:59;15.90;79.50
70762;DHT22;58360;0.000;0.000;2022-10-16T08:58:29;16.00;79.50
70762;DHT22;58360;0.000;0.000;2022-10-16T09:01:03;16.00;79.70
70762;DHT22;58360;0.000;0.000;2022-10-16T09:06:53;16.10;79.70
70762;DHT22;58360;0.000;0.000;2022-10-16T09:12:41;16.30;78.80
70762;DHT22;58360;0.000;0.000;2022-10-16T09:18:19;16.30;77.80
70762;DHT22;58360;0.000;0.000;2022-10-16T09:23:37;16.50;77.90
70762;DHT22;58360;0.000;0.000;2022-10-16T09:26:05;16.50;78.00
70762;DHT22;58360;0.000;0.000;2022-10-16T09:28:30;16.60;78.20
70762;DHT22;58360;0.000;0.000;2022-10-16T09:30:56;16.60;77.30
70762;DHT22;58360;0.000;0.000;2022-10-16T09:33:27;16.60;76.60
70762;DHT22;58360;0.000;0.000;2022-10-16T09:35:54;16.70;76.20
70762;DHT22;58360;0.000;0.000;2022-10-16T09:38:26;16.70;76.80
70762;DHT22;58360;0.000;0.000;2022-10-16T09:40:53;16.80;75.70
70762;DHT22;58360;0.000;0.000;2022-10-16T09:43:26;16.80;76.20
70762;DHT22;58360;0.000;0.000;2022-10-16T09:48:20;16.90;76.30
70762;DHT22;58360;0.000;0.000;2022-10-16T09:50:56;17.00;75.70
70762;DHT22;58360;0.000;0.000;2022-10-16T09:53:22;17.00;76.10
70762;DHT22;58360;0.000;0.000;2022-10-16T09:55:50;17.00;76.60
70762;DHT22;58360;0.000;0.000;2022-10-16T09:58:16;17.10;75.10
70762;DHT22;58360;0.000;0.000;2022-10-16T10:00:48;17.20;75.20
70762;DHT22;58360;0.000;0.000;2022-10-16T10:11:53;17.40;74.30
70762;DHT22;58360;0.000;0.000;2022-10-16T10:14:37;17.40;73.30
70762;DHT22;58360;0.000;0.000;2022-10-16T10:19:49;17.50;72.90
70762;DHT22;58360;0.000;0.000;2022-10-16T10:22:25;17.60;73.30
70762;DHT22;58360;0.000;0.000;2022-10-16T10:35:40;17.80;73.20
70762;DHT22;58360;0.000;0.000;2022-10-16T10:52:14;18.60;70.00
70762;DHT22;58360;0.000;0.000;2022-10-16T10:57:28;19.10;69.30
70762;DHT22;58360;0.000;0.000;2022-10-16T11:02:26;19.30;67.60
70762;DHT22;58360;0.000;0.000;2022-10-16T11:05:30;19.40;65.90
70762;DHT22;58360;0.000;0.000;2022-10-16T11:10:45;19.50;67.20
70762;DHT22;58360;0.000;0.000;2022-10-16T11:15:50;19.50;67.70
70762;DHT22;58360;0.000;0.000;2022-10-16T11:18:25;19.40;66.10
70762;DHT22;58360;0.000;0.000;2022-10-16T11:20:56;19.30;67.10
70762;DHT22;58360;0.000;0.000;2022-10-16T11:26:23;19.50;65.80
70762;DHT22;58360;0.000;0.000;2022-10-16T11:28:54;19.70;64.30
70762;DHT22;58360;0.000;0.000;2022-10-16T11:31:37;19.90;65.50
70762;DHT22;58360;0.000;0.000;2022-10-16T11:37:17;19.90;65.20
70762;DHT22;58360;0.000;0.000;2022-10-16T11:39:45;19.90;65.50
70762;DHT22;58360;0.000;0.000;2022-10-16T11:42:34;19.90;65.50
70762;DHT22;58360;0.000;0.000;2022-10-16T11:45:23;19.80;64.00
70762;DHT22;58360;0.000;0.000;2022-10-16T11:48:05;19.60;65.90
70762;DHT22;58360;0.000;0.000;2022-10-16T11:53:51;19.30;65.10
70762;DHT22;58360;0.000;0.000;2022-10-16T11:56:20;19.50;63.40
70762;DHT22;58360;0.000;0.000;2022-10-16T11:59:14;19.50;64.50
70762;DHT22;58360;0.000;0.000;2022-10-16T12:01:53;19.50;64.30
70762;DHT22;58360;0.000;0.000;2022-10-16T12:04:30;19.60;62.40
70762;DHT22;58360;0.000;0.000;2022-10-16T12:07:13;19.90;62.90
70762;DHT22;58360;0.000;0.000;2022-10-16T12:09:41;19.80;62.40
70762;DHT22;58360;0.000;0.000;2022-10-16T12:12:28;19.80;62.90
70762;DHT22;58360;0.000;0.000;2022-10-16T12:15:18;19.80;62.60
70762;DHT22;58360;0.000;0.000;2022-10-16T12:17:44;19.80;63.20
70762;DHT22;58360;0.000;0.000;2022-10-16T12:22:52;19.90;62.20
70762;DHT22;58360;0.000;0.000;2022-10-16T12:28:05;20.00;61.90
70762;DHT22;58360;0.000;0.000;2022-10-16T12:30:35;20.00;61.90
70762;DHT22;58360;0.000;0.000;2022-10-16T12:33:06;20.30;61.10
70762;DHT22;58360;0.000;0.000;2022-10-16T12:35:46;20.30;61.40
70762;DHT22;58360;0.000;0.000;2022-10-16T12:38:18;20.30;62.50
70762;DHT22;58360;0.000;0.000;2022-10-16T12:40:45;20.20;62.60
70762;DHT22;58360;0.000;0.000;2022-10-16T12:43:35;20.10;61.70
70762;DHT22;58360;0.000;0.000;2022-10-16T12:48:37;20.40;61.60
70762;DHT22;58360;0.000;0.000;2022-10-16T12:54:09;20.60;62.30
70762;DHT22;58360;0.000;0.000;2022-10-16T12:59:33;21.00;61.40
70762;DHT22;58360;0.000;0.000;2022-10-16T13:08:07;21.40;60.20
70762;DHT22;58360;0.000;0.000;2022-10-16T13:21:51;21.40;58.70
70762;DHT22;58360;0.000;0.000;2022-10-16T13:24:23;21.50;59.80
70762;DHT22;58360;0.000;0.000;2022-10-16T13:29:38;21.40;59.80
70762;DHT22;58360;0.000;0.000;2022-10-16T13:32:11;21.30;61.80
70762;DHT22;58360;0.000;0.000;2022-10-16T13:34:48;21.30;59.70
70762;DHT22;58360;0.000;0.000;2022-10-16T13:37:19;21.40;59.40
70762;DHT22;58360;0.000;0.000;2022-10-16T13:39:45;21.40;58.60
70762;DHT22;58360;0.000;0.000;2022-10-16T13:42:26;21.30;58.60
70762;DHT22;58360;0.000;0.000;2022-10-16T13:44:54;21.20;58.80
70762;DHT22;58360;0.000;0.000;2022-10-16T13:47:25;21.20;58.70
70762;DHT22;58360;0.000;0.000;2022-10-16T13:50:03;21.20;58.50
70762;DHT22;58360;0.000;0.000;2022-10-16T13:52:29;21.00;59.10
70762;DHT22;58360;0.000;0.000;2022-10-16T13:54:55;21.00;59.80
70762;DHT22;58360;0.000;0.000;2022-10-16T13:57:23;20.90;62.60
70762;DHT22;58360;0.000;0.000;2022-10-16T13:59:50;20.90;61.00
70762;DHT22;58360;0.000;0.000;2022-10-16T14:02:34;20.90;60.90
70762;DHT22;58360;0.000;0.000;2022-10-16T14:05:03;20.90;59.90
70762;DHT22;58360;0.000;0.000;2022-10-16T14:07:32;21.00;59.10
70762;DHT22;58360;0.000;0.000;2022-10-16T14:10:26;20.90;60.00
70762;DHT22;58360;0.000;0.000;2022-10-16T14:13:04;20.70;61.60
70762;DHT22;58360;0.000;0.000;2022-10-16T14:15:32;20.60;62.30
70762;DHT22;58360;0.000;0.000;2022-10-16T14:17:59;20.50;62.10
70762;DHT22;58360;0.000;0.000;2022-10-16T14:20:28;20.50;63.30
70762;DHT22;58360;0.000;0.000;2022-10-16T14:23:02;20.50;63.50
70762;DHT22;58360;0.000;0.000;2022-10-16T14:25:31;20.60;62.90
70762;DHT22;58360;0.000;0.000;2022-10-16T14:27:59;20.70;63.50
70762;DHT22;58360;0.000;0.000;2022-10-16T14:30:28;20.80;63.00
70762;DHT22;58360;0.000;0.000;2022-10-16T14:35:56;21.10;60.60
70762;DHT22;58360;0.000;0.000;2022-10-16T14:38:24;21.50;60.60
70762;DHT22;58360;0.000;0.000;2022-10-16T14:40:50;22.00;59.20
70762;DHT22;58360;0.000;0.000;2022-10-16T14:43:36;22.20;57.70
70762;DHT22;58360;0.000;0.000;2022-10-16T14:46:28;22.00;56.20
70762;DHT22;58360;0.000;0.000;2022-10-16T14:49:03;21.90;56.80
70762;DHT22;58360;0.000;0.000;2022-10-16T14:51:29;21.60;57.20
70762;DHT22;58360;0.000;0.000;2022-10-16T14:53:55;21.60;57.10
70762;DHT22;58360;0.000;0.000;2022-10-16T14:56:23;21.30;58.20
70762;DHT22;58360;0.000;0.000;2022-10-16T14:58:52;21.20;58.60
70762;DHT22;58360;0.000;0.000;2022-10-16T15:01:19;20.90;59.90
70762;DHT22;58360;0.000;0.000;2022-10-16T15:03:45;20.50;61.90
70762;DHT22;58360;0.000;0.000;2022-10-16T15:06:12;20.40;61.60
70762;DHT22;58360;0.000;0.000;2022-10-16T15:08:38;20.30;61.40
70762;DHT22;58360;0.000;0.000;2022-10-16T15:11:05;20.30;62.20
70762;DHT22;58360;0.000;0.000;2022-10-16T15:13:34;20.10;62.80
70762;DHT22;58360;0.000;0.000;2022-10-16T15:16:00;20.10;62.70
70762;DHT22;58360;0.000;0.000;2022-10-16T15:18:26;20.10;63.40
70762;DHT22;58360;0.000;0.000;2022-10-16T15:20:52;20.00;63.40
70762;DHT22;58360;0.000;0.000;2022-10-16T15:23:20;20.20;63.50
70762;DHT22;58360;0.000;0.000;2022-10-16T15:25:51;20.00;64.20
70762;DHT22;58360;0.000;0.000;2022-10-16T15:28:18;19.80;65.20
70762;DHT22;58360;0.000;0.000;2022-10-16T15:30:44;20.00;64.20
70762;DHT22;58360;0.000;0.000;2022-10-16T15:33:14;20.00;63.80
70762;DHT22;58360;0.000;0.000;2022-10-16T15:35:40;20.00;63.80
70762;DHT22;58360;0.000;0.000;2022-10-16T15:38:06;20.00;64.30
70762;DHT22;58360;0.000;0.000;2022-10-16T15:40:32;19.90;64.80
70762;DHT22;58360;0.000;0.000;2022-10-16T15:42:57;19.80;65.30
70762;DHT22;58360;0.000;0.000;2022-10-16T15:45:23;19.80;65.40
70762;DHT22;58360;0.000;0.000;2022-10-16T15:47:48;19.90;65.20
70762;DHT22;58360;0.000;0.000;2022-10-16T15:50:15;19.90;65.10
70762;DHT22;58360;0.000;0.000;2022-10-16T15:52:41;19.80;65.50
70762;DHT22;58360;0.000;0.000;2022-10-16T15:55:11;19.90;65.30
70762;DHT22;58360;0.000;0.000;2022-10-16T15:57:37;19.70;65.90
70762;DHT22;58360;0.000;0.000;2022-10-16T16:00:16;19.60;67.00
70762;DHT22;58360;0.000;0.000;2022-10-16T16:02:43;19.50;67.60
70762;DHT22;58360;0.000;0.000;2022-10-16T16:05:15;19.40;68.80
70762;DHT22;58360;0.000;0.000;2022-10-16T16:07:42;19.30;69.30
70762;DHT22;58360;0.000;0.000;2022-10-16T16:10:10;19.40;68.70
70762;DHT22;58360;0.000;0.000;2022-10-16T16:12:36;19.20;69.70
70762;DHT22;58360;0.000;0.000;2022-10-16T16:15:05;19.30;68.90
70762;DHT22;58360;0.000;0.000;2022-10-16T16:17:33;19.20;69.70
70762;DHT22;58360;0.000;0.000;2022-10-16T16:19:59;19.20;69.50
70762;DHT22;58360;0.000;0.000;2022-10-16T16:22:24;19.30;69.70
70762;DHT22;58360;0.000;0.000;2022-10-16T16:24:50;19.20;69.50
70762;DHT22;58360;0.000;0.000;2022-10-16T16:27:16;19.20;69.60
70762;DHT22;58360;0.000;0.000;2022-10-16T16:29:42;19.20;69.50
70762;DHT22;58360;0.000;0.000;2022-10-16T16:32:08;19.10;70.00
70762;DHT22;58360;0.000;0.000;2022-10-16T16:34:33;19.10;70.20
70762;DHT22;58360;0.000;0.000;2022-10-16T16:37:00;19.10;70.10
70762;DHT22;58360;0.000;0.000;2022-10-16T16:39:25;18.90;70.70
70762;DHT22;58360;0.000;0.000;2022-10-16T16:41:51;18.80;71.70
70762;DHT22;58360;0.000;0.000;2022-10-16T16:44:17;18.60;72.40
70762;DHT22;58360;0.000;0.000;2022-10-16T16:46:43;18.60;71.90
70762;DHT22;58360;0.000;0.000;2022-10-16T16:49:11;18.70;71.60
70762;DHT22;58360;0.000;0.000;2022-10-16T16:51:37;18.60;72.20
70762;DHT22;58360;0.000;0.000;2022-10-16T16:54:03;18.60;72.50
70762;DHT22;58360;0.000;0.000;2022-10-16T16:56:29;18.50;72.50
70762;DHT22;58360;0.000;0.000;2022-10-16T16:58:56;18.50;72.60
70762;DHT22;58360;0.000;0.000;2022-10-16T17:01:24;18.60;72.30
70762;DHT22;58360;0.000;0.000;2022-10-16T17:03:52;18.70;71.20
70762;DHT22;58360;0.000;0.000;2022-10-16T17:06:21;18.70;71.40
70762;DHT22;58360;0.000;0.000;2022-10-16T17:08:48;18.70;71.20
70762;DHT22;58360;0.000;0.000;2022-10-16T17:11:16;18.60;71.50
70762;DHT22;58360;0.000;0.000;2022-10-16T17:13:42;18.50;72.40
70762;DHT22;58360;0.000;0.000;2022-10-16T17:16:09;18.40;72.60
70762;DHT22;58360;0.000;0.000;2022-10-16T17:18:35;18.30;73.60
70762;DHT22;58360;0.000;0.000;2022-10-16T17:21:03;18.30;73.00
70762;DHT22;58360;0.000;0.000;2022-10-16T17:23:29;18.20;73.90
70762;DHT22;58360;0.000;0.000;2022-10-16T17:25:56;18.10;74.00
70762;DHT22;58360;0.000;0.000;2022-10-16T17:28:21;18.10;74.70
70762;DHT22;58360;0.000;0.000;2022-10-16T17:30:47;18.10;75.10
70762;DHT22;58360;0.000;0.000;2022-10-16T17:33:13;18.10;74.60
70762;DHT22;58360;0.000;0.000;2022-10-16T17:35:41;18.30;73.90
70762;DHT22;58360;0.000;0.000;2022-10-16T17:38:07;18.30;73.80
70762;DHT22;58360;0.000;0.000;2022-10-16T17:40:33;18.50;73.60
70762;DHT22;58360;0.000;0.000;2022-10-16T17:42:59;18.40;73.70
70762;DHT22;58360;0.000;0.000;2022-10-16T17:45:25;18.30;75.20
70762;DHT22;58360;0.000;0.000;2022-10-16T17:47:51;18.20;75.40
70762;DHT22;58360;0.000;0.000;2022-10-16T17:50:17;18.30;75.30
70762;DHT22;58360;0.000;0.000;2022-10-16T17:52:43;18.30;75.70
70762;DHT22;58360;0.000;0.000;2022-10-16T17:55:08;18.20;76.00
70762;DHT22;58360;0.000;0.000;2022-10-16T17:57:34;18.10;77.30
70762;DHT22;58360;0.000;0.000;2022-10-16T18:00:00;18.20;77.10
70762;DHT22;58360;0.000;0.000;2022-10-16T18:02:28;18.20;77.70
70762;DHT22;58360;0.000;0.000;2022-10-16T18:04:54;18.30;76.50
70762;DHT22;58360;0.000;0.000;2022-10-16T18:07:20;18.30;76.70
70762;DHT22;58360;0.000;0.000;2022-10-16T18:09:46;18.20;77.50